Time;durP1;ratioP1;P1;durP2;ratioP2;P2;SDS_P1;SDS_P2;PMS_P1;PMS_P2;Temp;Humidity;BMP_temperature;BMP_pressure;BME280_temperature;BME280_humidity;BME280_pressure;Samples;Min_cycle;Max_cycle;Signal;HPM_P1;HPM_P2
2021/04/01 00:00:28;;;;;;;23.63;17.27;;;;;;;;;;2050252;29;20175;-55
2021/04/01 00:01:29;;;;;;;23.55;16.63;;;;;;;;;;2041338;29;20211;-49
2021/04/01 00:02:29;;;;;;;19.67;16.05;;;;;;;;;;2041548;29;20187;-54
2021/04/01 00:03:29;;;;;;;18.73;16.23;;;;;;;;;;2035345;29;20208;-51
2021/04/01 00:04:29;;;;;;;19.45;15.68;;;;;;;;;;2033604;29;20641;-51
2021/04/01 00:05:30;;;;;;;19.98;15.38;;;;;;;;;;2033735;29;20670;-50
2021/04/01 00:06:30;;;;;;;21.70;16.10;;;;;;;;;;2042315;29;20651;-50
2021/04/01 00:07:30;;;;;;;19.83;16.17;;;;;;;;;;2043015;29;20251;-51
2021/04/01 00:08:31;;;;;;;26.02;18.33;;;;;;;;;;2037694;29;20207;-53
2021/04/01 00:09:31;;;;;;;23.20;17.35;;;;;;;;;;2040301;29;20198;-53
2021/04/01 00:10:34;;;;;;;22.63;17.35;;;;;;;;;;2042227;29;20651;-54
2021/04/01 00:11:35;;;;;;;19.45;16.25;;;;;;;;;;2042121;29;20271;-50
2021/04/01 00:12:35;;;;;;;25.60;16.63;;;;;;;;;;2042464;29;20178;-50
2021/04/01 00:13:35;;;;;;;22.60;17.23;;;;;;;;;;2033561;29;20220;-50
2021/04/01 00:14:36;;;;;;;21.27;16.70;;;;;;;;;;2034819;29;20196;-53
2021/04/01 00:15:38;;;;;;;22.77;17.40;;;;;;;;;;2043539;29;20644;-53
2021/04/01 00:16:38;;;;;;;25.20;18.13;;;;;;;;;;2049480;29;20652;-51
2021/04/01 00:17:39;;;;;;;23.90;17.70;;;;;;;;;;2047162;29;20180;-56
2021/04/01 00:18:39;;;;;;;25.73;18.80;;;;;;;;;;2045514;29;20190;-54
2021/04/01 00:19:39;;;;;;;23.30;16.73;;;;;;;;;;2035246;29;20186;-56
2021/04/01 00:20:40;;;;;;;23.48;18.10;;;;;;;;;;2043234;29;20255;-53
2021/04/01 00:21:40;;;;;;;22.35;16.77;;;;;;;;;;2040762;29;20227;-56
2021/04/01 00:22:41;;;;;;;22.10;17.73;;;;;;;;;;2036437;29;20266;-54
2021/04/01 00:23:41;;;;;;;19.98;16.83;;;;;;;;;;2040688;29;20296;-51
2021/04/01 00:24:41;;;;;;;22.90;16.92;;;;;;;;;;2040126;29;20167;-51
2021/04/01 00:25:42;;;;;;;23.23;17.17;;;;;;;;;;2030315;29;20193;-51
2021/04/01 00:26:42;;;;;;;19.77;16.67;;;;;;;;;;2040280;29;20228;-54
2021/04/01 00:27:43;;;;;;;24.80;17.10;;;;;;;;;;2046201;29;20266;-52
2021/04/01 00:28:43;;;;;;;26.70;18.35;;;;;;;;;;2049332;29;20175;-52
2021/04/01 00:29:44;;;;;;;22.50;17.27;;;;;;;;;;2045391;29;20179;-52
2021/04/01 00:30:44;;;;;;;23.45;17.55;;;;;;;;;;2049231;29;20289;-51
2021/04/01 00:31:44;;;;;;;23.92;16.83;;;;;;;;;;2052119;28;20199;-53
2021/04/01 00:32:47;;;;;;;24.30;18.52;;;;;;;;;;2045496;29;20687;-51
2021/04/01 00:33:47;;;;;;;19.65;16.48;;;;;;;;;;2043828;29;20176;-56
2021/04/01 00:34:47;;;;;;;21.40;16.73;;;;;;;;;;2042365;29;20262;-52
2021/04/01 00:35:47;;;;;;;21.35;17.98;;;;;;;;;;2049297;29;20203;-50
2021/04/01 00:36:48;;;;;;;27.10;17.83;;;;;;;;;;2044829;29;20179;-52
2021/04/01 00:37:48;;;;;;;21.92;17.17;;;;;;;;;;2039610;29;20191;-51
2021/04/01 00:38:48;;;;;;;25.33;17.48;;;;;;;;;;2036708;29;20184;-55
2021/04/01 00:39:48;;;;;;;21.42;17.02;;;;;;;;;;2044237;29;20254;-51
2021/04/01 00:40:49;;;;;;;25.70;19.35;;;;;;;;;;2041058;29;20190;-54
2021/04/01 00:41:49;;;;;;;32.78;18.35;;;;;;;;;;2044884;29;20199;-50
2021/04/01 00:42:49;;;;;;;21.92;17.10;;;;;;;;;;2048400;29;20171;-55
2021/04/01 00:43:50;;;;;;;21.83;17.40;;;;;;;;;;2040370;29;20195;-57
2021/04/01 00:44:50;;;;;;;20.77;17.13;;;;;;;;;;2040241;29;20167;-51
2021/04/01 00:45:50;;;;;;;22.38;17.40;;;;;;;;;;2040788;29;20210;-52
2021/04/01 00:46:51;;;;;;;27.92;17.55;;;;;;;;;;2038929;29;20311;-51
2021/04/01 00:47:52;;;;;;;23.95;17.65;;;;;;;;;;2039579;29;20172;-52
2021/04/01 00:48:53;;;;;;;22.02;17.17;;;;;;;;;;2041597;29;20670;-48
2021/04/01 00:49:53;;;;;;;25.02;18.27;;;;;;;;;;2041783;29;20194;-50
2021/04/01 00:50:53;;;;;;;21.63;16.48;;;;;;;;;;2049327;29;20234;-53
2021/04/01 00:51:53;;;;;;;24.17;16.85;;;;;;;;;;2048220;29;20199;-50
2021/04/01 00:52:54;;;;;;;26.27;18.40;;;;;;;;;;2043565;29;20178;-49
2021/04/01 00:53:54;;;;;;;24.20;17.10;;;;;;;;;;2042268;29;20164;-53
2021/04/01 00:54:54;;;;;;;22.40;17.73;;;;;;;;;;2049039;29;20170;-50
2021/04/01 00:55:55;;;;;;;25.77;18.35;;;;;;;;;;2048509;29;20191;-56
2021/04/01 00:56:56;;;;;;;20.05;17.23;;;;;;;;;;2035029;29;20192;-52
2021/04/01 00:57:57;;;;;;;23.08;17.77;;;;;;;;;;2037592;29;20191;-52
2021/04/01 00:58:58;;;;;;;24.40;17.48;;;;;;;;;;2045648;29;21311;-51
2021/04/01 00:59:58;;;;;;;22.98;17.88;;;;;;;;;;2048599;29;20207;-51
2021/04/01 01:02:17;;;;;;;25.20;18.50;;;;;;;;;;2045581;29;20176;-53
2021/04/01 01:03:17;;;;;;;22.63;16.95;;;;;;;;;;2045288;29;20189;-51
2021/04/01 01:04:18;;;;;;;21.73;17.38;;;;;;;;;;2045763;29;20203;-52
2021/04/01 01:05:18;;;;;;;21.33;17.85;;;;;;;;;;2045330;29;20183;-50
2021/04/01 01:06:19;;;;;;;25.00;18.20;;;;;;;;;;2037176;29;20168;-55
2021/04/01 01:07:20;;;;;;;26.63;18.95;;;;;;;;;;2040927;29;20676;-51
2021/04/01 01:08:20;;;;;;;28.88;19.55;;;;;;;;;;2045277;29;20211;-52
2021/04/01 01:09:20;;;;;;;25.83;18.65;;;;;;;;;;2050034;29;20186;-50
2021/04/01 01:10:22;;;;;;;23.50;18.00;;;;;;;;;;2047899;29;20182;-49
2021/04/01 01:11:22;;;;;;;24.75;17.58;;;;;;;;;;2037047;29;20700;-50
2021/04/01 01:12:23;;;;;;;24.08;17.63;;;;;;;;;;2040248;29;20174;-52
2021/04/01 01:13:23;;;;;;;25.13;17.52;;;;;;;;;;2048696;29;20183;-54
2021/04/01 01:14:23;;;;;;;22.05;17.63;;;;;;;;;;2047059;29;20203;-58
2021/04/01 01:15:24;;;;;;;23.15;18.63;;;;;;;;;;2048688;29;20170;-52
2021/04/01 01:16:24;;;;;;;21.58;17.50;;;;;;;;;;2044671;29;20723;-54
2021/04/01 01:17:24;;;;;;;20.65;17.73;;;;;;;;;;2049318;29;20179;-53
2021/04/01 01:18:28;;;;;;;22.23;16.75;;;;;;;;;;2047744;29;20193;-55
2021/04/01 01:19:34;;;;;;;27.63;17.80;;;;;;;;;;2046075;29;20176;-49
2021/04/01 01:20:34;;;;;;;26.55;17.42;;;;;;;;;;2044502;29;20179;-54
2021/04/01 01:21:34;;;;;;;24.75;16.48;;;;;;;;;;2045258;29;20603;-51
2021/04/01 01:22:38;;;;;;;22.13;17.10;;;;;;;;;;2044862;29;20167;-54
2021/04/01 01:23:39;;;;;;;21.05;17.00;;;;;;;;;;2044697;29;20243;-52
2021/04/01 01:24:40;;;;;;;22.80;17.00;;;;;;;;;;2048421;29;20175;-50
2021/04/01 01:25:40;;;;;;;23.48;16.67;;;;;;;;;;2045759;29;20183;-51
2021/04/01 01:26:41;;;;;;;23.50;16.80;;;;;;;;;;2046527;29;20698;-53
2021/04/01 01:27:41;;;;;;;24.85;16.40;;;;;;;;;;2045449;29;20643;-50
2021/04/01 01:28:42;;;;;;;24.38;16.65;;;;;;;;;;2045832;29;20841;-50
2021/04/01 01:29:47;;;;;;;21.27;16.63;;;;;;;;;;2029991;29;20164;-53
2021/04/01 01:30:48;;;;;;;22.90;17.60;;;;;;;;;;2032751;29;20177;-52
2021/04/01 01:31:49;;;;;;;20.35;17.10;;;;;;;;;;2037005;29;20188;-54
2021/04/01 01:32:57;;;;;;;23.33;17.58;;;;;;;;;;2038422;29;20176;-52
2021/04/01 01:33:57;;;;;;;21.83;17.27;;;;;;;;;;2037894;29;20227;-53
2021/04/01 01:34:58;;;;;;;23.85;16.02;;;;;;;;;;2036808;29;20200;-52
2021/04/01 01:35:58;;;;;;;21.40;16.88;;;;;;;;;;2037953;29;20220;-51
2021/04/01 01:36:59;;;;;;;20.13;15.35;;;;;;;;;;2029264;29;20180;-53
2021/04/01 01:38:00;;;;;;;21.95;16.15;;;;;;;;;;2031735;29;20267;-54
2021/04/01 01:39:00;;;;;;;26.92;16.70;;;;;;;;;;2031448;29;20632;-53
2021/04/01 01:40:01;;;;;;;21.77;17.42;;;;;;;;;;2031942;29;20187;-52
2021/04/01 01:41:02;;;;;;;19.88;17.00;;;;;;;;;;2037393;29;20195;-53
2021/04/01 01:42:03;;;;;;;23.27;16.73;;;;;;;;;;2030469;29;20224;-51
2021/04/01 01:43:04;;;;;;;23.67;17.52;;;;;;;;;;2038593;29;20186;-53
2021/04/01 01:44:05;;;;;;;22.60;16.17;;;;;;;;;;2038070;29;20620;-54
2021/04/01 01:45:05;;;;;;;23.92;16.45;;;;;;;;;;2033725;29;20287;-53
2021/04/01 01:46:05;;;;;;;21.15;17.42;;;;;;;;;;2040670;29;20175;-52
2021/04/01 01:47:06;;;;;;;21.63;16.17;;;;;;;;;;2048261;29;20589;-52
2021/04/01 01:48:06;;;;;;;22.80;17.25;;;;;;;;;;2038566;29;20282;-54
2021/04/01 01:49:07;;;;;;;23.48;15.73;;;;;;;;;;2040608;29;20251;-52
2021/04/01 01:50:09;;;;;;;23.13;16.73;;;;;;;;;;2047962;29;20175;-52
2021/04/01 01:51:09;;;;;;;17.77;15.88;;;;;;;;;;2046465;29;20187;-51
2021/04/01 01:52:10;;;;;;;24.60;17.75;;;;;;;;;;2028200;29;20188;-50
2021/04/01 01:53:10;;;;;;;26.05;16.40;;;;;;;;;;2020998;29;20233;-52
2021/04/01 01:54:11;;;;;;;25.65;17.33;;;;;;;;;;2037913;29;20171;-50
2021/04/01 01:55:12;;;;;;;27.08;17.27;;;;;;;;;;2045615;29;20171;-52
2021/04/01 01:56:17;;;;;;;28.60;18.48;;;;;;;;;;2045124;29;20171;-52
2021/04/01 01:57:17;;;;;;;23.08;17.15;;;;;;;;;;2045000;29;20182;-56
2021/04/01 01:58:18;;;;;;;21.77;16.60;;;;;;;;;;2038383;29;20172;-54
2021/04/01 01:59:18;;;;;;;22.30;18.15;;;;;;;;;;2023170;29;20199;-51
2021/04/01 02:00:23;;;;;;;23.17;16.73;;;;;;;;;;2023449;29;20576;-50
2021/04/01 02:01:24;;;;;;;24.77;17.67;;;;;;;;;;2021857;29;20201;-52
2021/04/01 02:02:24;;;;;;;23.92;17.13;;;;;;;;;;2024210;29;20558;-51
2021/04/01 02:03:25;;;;;;;23.90;16.67;;;;;;;;;;2038942;29;20176;-56
2021/04/01 02:04:25;;;;;;;25.02;17.42;;;;;;;;;;2045874;29;20257;-50
2021/04/01 02:05:26;;;;;;;27.25;16.88;;;;;;;;;;2045943;29;20640;-48
2021/04/01 02:06:26;;;;;;;19.70;17.15;;;;;;;;;;2047791;29;20250;-55
2021/04/01 02:07:27;;;;;;;24.02;17.30;;;;;;;;;;2042545;29;20191;-53
2021/04/01 02:08:27;;;;;;;23.60;17.40;;;;;;;;;;2045641;29;21689;-50
2021/04/01 02:09:27;;;;;;;22.33;17.85;;;;;;;;;;2046208;29;20183;-51
2021/04/01 02:10:27;;;;;;;23.23;17.67;;;;;;;;;;2039600;29;20187;-52
2021/04/01 02:11:28;;;;;;;23.58;17.25;;;;;;;;;;2038443;29;20923;-51
2021/04/01 02:12:28;;;;;;;22.50;18.08;;;;;;;;;;2044078;29;20213;-51
2021/04/01 02:13:28;;;;;;;24.50;16.88;;;;;;;;;;2045748;29;20178;-51
2021/04/01 02:14:29;;;;;;;23.42;18.15;;;;;;;;;;2048537;29;20257;-52
2021/04/01 02:15:35;;;;;;;23.67;17.45;;;;;;;;;;2045529;29;20168;-50
2021/04/01 02:16:36;;;;;;;23.25;18.13;;;;;;;;;;2046226;29;20183;-53
2021/04/01 02:17:36;;;;;;;23.00;17.60;;;;;;;;;;2045549;29;20246;-49
2021/04/01 02:18:37;;;;;;;22.35;17.90;;;;;;;;;;2046794;29;20183;-50
2021/04/01 02:19:38;;;;;;;24.13;18.00;;;;;;;;;;2032139;29;20641;-51
2021/04/01 02:20:41;;;;;;;23.70;16.83;;;;;;;;;;2032073;29;20268;-54
2021/04/01 02:21:41;;;;;;;26.02;17.05;;;;;;;;;;2038169;29;20216;-53
2021/04/01 02:22:41;;;;;;;30.80;17.83;;;;;;;;;;2047021;29;20520;-54
2021/04/01 02:23:42;;;;;;;24.73;18.48;;;;;;;;;;2039011;29;20180;-55
2021/04/01 02:24:42;;;;;;;28.38;19.23;;;;;;;;;;2041006;29;20171;-49
2021/04/01 02:25:44;;;;;;;27.70;18.70;;;;;;;;;;2027210;29;20180;-49
2021/04/01 02:26:44;;;;;;;27.45;19.25;;;;;;;;;;2033143;29;20180;-55
2021/04/01 02:27:44;;;;;;;30.15;20.42;;;;;;;;;;2048601;29;20201;-54
2021/04/01 02:28:45;;;;;;;27.50;20.20;;;;;;;;;;2032744;29;20176;-51
2021/04/01 02:29:47;;;;;;;29.02;20.17;;;;;;;;;;2033119;29;20235;-52
2021/04/01 02:30:49;;;;;;;30.58;21.13;;;;;;;;;;2049834;29;20190;-54
2021/04/01 02:31:49;;;;;;;34.20;21.95;;;;;;;;;;2043877;29;20205;-50
2021/04/01 02:32:50;;;;;;;30.13;21.02;;;;;;;;;;2035130;29;20183;-57
2021/04/01 02:33:52;;;;;;;39.15;21.98;;;;;;;;;;2029273;29;20164;-55
2021/04/01 02:34:53;;;;;;;32.67;22.15;;;;;;;;;;2038356;29;20184;-49
2021/04/01 02:35:54;;;;;;;34.50;22.45;;;;;;;;;;2049102;29;20174;-52
2021/04/01 02:36:54;;;;;;;34.65;23.15;;;;;;;;;;2049876;29;20181;-55
2021/04/01 02:37:54;;;;;;;33.72;23.25;;;;;;;;;;2041029;29;20673;-51
2021/04/01 02:38:55;;;;;;;35.00;23.90;;;;;;;;;;2039841;29;20196;-50
2021/04/01 02:39:55;;;;;;;35.88;23.98;;;;;;;;;;2039336;29;20627;-49
2021/04/01 02:40:57;;;;;;;35.05;23.38;;;;;;;;;;2032342;29;20180;-50
2021/04/01 02:41:57;;;;;;;34.28;24.02;;;;;;;;;;2033597;29;20768;-48
2021/04/01 02:42:57;;;;;;;33.85;23.38;;;;;;;;;;2030920;29;20203;-51
2021/04/01 02:43:58;;;;;;;40.03;24.45;;;;;;;;;;2040330;29;20226;-53
2021/04/01 02:44:58;;;;;;;36.75;24.50;;;;;;;;;;2044273;29;20175;-54
2021/04/01 02:45:59;;;;;;;36.90;24.83;;;;;;;;;;2066386;23;20712;-61
2021/04/01 02:47:00;;;;;;;39.17;25.40;;;;;;;;;;2064811;28;20182;-63
2021/04/01 02:48:01;;;;;;;34.85;23.95;;;;;;;;;;2064800;28;20324;-63
2021/04/01 02:49:01;;;;;;;35.92;24.27;;;;;;;;;;2064651;28;20673;-63
2021/04/01 02:50:02;;;;;;;37.55;25.40;;;;;;;;;;2064978;28;20177;-62
2021/04/01 02:51:10;;;;;;;39.35;25.30;;;;;;;;;;2055807;28;20190;-65
2021/04/01 02:52:10;;;;;;;34.35;24.50;;;;;;;;;;2056972;28;20269;-63
2021/04/01 02:53:11;;;;;;;39.67;25.83;;;;;;;;;;2064717;28;20200;-63
2021/04/01 02:54:11;;;;;;;37.70;26.45;;;;;;;;;;2065050;28;20173;-65
2021/04/01 02:55:11;;;;;;;36.63;25.70;;;;;;;;;;2062051;28;20236;-63
2021/04/01 02:56:12;;;;;;;40.95;26.42;;;;;;;;;;2058774;28;20662;-64
2021/04/01 02:57:13;;;;;;;38.45;25.90;;;;;;;;;;2056668;28;20182;-64
2021/04/01 02:58:14;;;;;;;39.40;26.92;;;;;;;;;;2052986;28;20201;-64
2021/04/01 02:59:14;;;;;;;38.40;25.80;;;;;;;;;;2053468;28;20573;-63
2021/04/01 03:00:19;;;;;;;38.58;25.80;;;;;;;;;;2058245;28;20256;-63
2021/04/01 03:01:21;;;;;;;41.78;26.35;;;;;;;;;;2049043;29;20179;-64
2021/04/01 03:02:23;;;;;;;41.92;27.17;;;;;;;;;;2033260;29;20191;-62
2021/04/01 03:03:40;;;;;;;40.90;26.17;;;;;;;;;;2046144;29;20183;-64
2021/04/01 03:04:41;;;;;;;40.38;25.40;;;;;;;;;;2055371;28;20174;-62
2021/04/01 03:05:43;;;;;;;39.20;26.40;;;;;;;;;;2058289;28;20197;-64
2021/04/01 03:06:43;;;;;;;38.83;26.05;;;;;;;;;;2054598;28;20194;-63
2021/04/01 03:07:43;;;;;;;39.67;25.92;;;;;;;;;;2048707;29;20175;-62
2021/04/01 03:08:44;;;;;;;37.05;25.42;;;;;;;;;;2043980;29;20190;-62
2021/04/01 03:09:44;;;;;;;42.88;27.17;;;;;;;;;;2041159;29;20174;-61
2021/04/01 03:10:44;;;;;;;38.78;26.77;;;;;;;;;;2047758;29;20233;-63
2021/04/01 03:11:44;;;;;;;39.95;26.88;;;;;;;;;;2058211;28;20182;-63
2021/04/01 03:12:45;;;;;;;35.20;25.30;;;;;;;;;;2046474;29;20280;-63
2021/04/01 03:13:45;;;;;;;39.28;25.90;;;;;;;;;;2033277;29;20184;-64
2021/04/01 03:14:45;;;;;;;39.80;26.15;;;;;;;;;;2032892;29;20172;-62
2021/04/01 03:15:46;;;;;;;40.13;25.33;;;;;;;;;;2048535;28;20215;-65
2021/04/01 03:16:46;;;;;;;41.08;26.30;;;;;;;;;;2058185;28;20201;-64
2021/04/01 03:17:47;;;;;;;39.63;25.83;;;;;;;;;;2057247;28;20166;-65
2021/04/01 03:18:47;;;;;;;38.45;24.88;;;;;;;;;;2052996;28;20723;-64
2021/04/01 03:19:47;;;;;;;37.90;25.60;;;;;;;;;;2052930;28;20558;-64
2021/04/01 03:20:48;;;;;;;41.08;25.23;;;;;;;;;;2063477;28;20223;-63
2021/04/01 03:21:48;;;;;;;38.05;26.40;;;;;;;;;;2048867;29;20183;-62
2021/04/01 03:22:48;;;;;;;37.03;25.73;;;;;;;;;;2049590;29;20234;-62
2021/04/01 03:23:49;;;;;;;41.90;27.75;;;;;;;;;;2048154;28;20183;-64
2021/04/01 03:24:49;;;;;;;37.58;25.83;;;;;;;;;;2045864;29;20178;-64
2021/04/01 03:25:49;;;;;;;38.75;26.98;;;;;;;;;;2062851;28;20194;-66
2021/04/01 03:26:49;;;;;;;36.25;25.48;;;;;;;;;;2057700;28;20179;-62
2021/04/01 03:27:50;;;;;;;39.50;26.25;;;;;;;;;;2056802;28;20228;-62
2021/04/01 03:28:50;;;;;;;56.13;27.90;;;;;;;;;;2057022;28;20178;-62
2021/04/01 03:30:12;;;;;;;41.38;27.65;;;;;;;;;;2057726;28;20166;-65
2021/04/01 03:31:12;;;;;;;43.67;26.92;;;;;;;;;;2052952;28;20168;-64
2021/04/01 03:32:12;;;;;;;40.50;26.65;;;;;;;;;;2056431;28;20542;-61
2021/04/01 03:33:13;;;;;;;40.42;26.02;;;;;;;;;;2058165;28;20171;-61
2021/04/01 03:34:13;;;;;;;44.70;27.55;;;;;;;;;;2057890;28;20178;-65
2021/04/01 03:35:15;;;;;;;41.70;26.23;;;;;;;;;;2057324;28;20171;-65
2021/04/01 03:36:15;;;;;;;40.90;27.52;;;;;;;;;;2055422;28;20270;-63
2021/04/01 03:37:15;;;;;;;42.35;27.88;;;;;;;;;;2051814;28;20662;-64
2021/04/01 03:38:17;;;;;;;40.70;26.63;;;;;;;;;;2056470;28;20238;-65
2021/04/01 03:39:17;;;;;;;40.80;26.23;;;;;;;;;;2045503;29;20896;-60
2021/04/01 03:40:18;;;;;;;42.30;27.25;;;;;;;;;;2048963;29;20187;-63
2021/04/01 03:41:18;;;;;;;35.90;25.95;;;;;;;;;;2057833;28;20232;-63
2021/04/01 03:42:19;;;;;;;36.40;25.33;;;;;;;;;;2057227;28;20256;-62
2021/04/01 03:43:19;;;;;;;38.13;25.73;;;;;;;;;;2057346;28;20269;-63
2021/04/01 03:44:20;;;;;;;36.75;24.90;;;;;;;;;;2056187;28;20188;-63
2021/04/01 03:45:20;;;;;;;34.60;24.52;;;;;;;;;;2048875;28;20190;-59
2021/04/01 03:46:20;;;;;;;38.40;25.90;;;;;;;;;;2048888;29;20186;-63
2021/04/01 03:47:21;;;;;;;38.15;25.50;;;;;;;;;;2058195;28;20170;-63
2021/04/01 03:48:21;;;;;;;37.83;25.65;;;;;;;;;;2046973;29;20785;-61
2021/04/01 03:49:21;;;;;;;37.47;25.58;;;;;;;;;;2045931;29;20187;-62
2021/04/01 03:50:22;;;;;;;38.75;25.67;;;;;;;;;;2056006;28;20223;-62
2021/04/01 03:51:22;;;;;;;40.10;27.38;;;;;;;;;;2057324;28;20182;-63
2021/04/01 03:52:22;;;;;;;43.30;28.45;;;;;;;;;;2050482;28;20202;-63
2021/04/01 03:53:22;;;;;;;39.83;27.42;;;;;;;;;;2053331;28;20252;-59
2021/04/01 03:54:23;;;;;;;39.53;26.55;;;;;;;;;;2057037;28;20174;-64
2021/04/01 03:55:39;;;;;;;45.47;27.83;;;;;;;;;;2056693;28;20177;-64
2021/04/01 03:56:48;;;;;;;41.97;27.83;;;;;;;;;;2056617;28;20178;-62
2021/04/01 03:57:50;;;;;;;42.78;27.27;;;;;;;;;;2047852;29;20218;-63
2021/04/01 03:59:00;;;;;;;48.78;30.52;;;;;;;;;;2043223;28;20202;-61
2021/04/01 04:00:13;;;;;;;45.88;29.27;;;;;;;;;;2048302;29;20636;-60
2021/04/01 04:01:35;;;;;;;42.17;29.80;;;;;;;;;;2046227;28;20179;-63
2021/04/01 04:03:01;;;;;;;43.13;28.30;;;;;;;;;;2057595;28;20205;-63
2021/04/01 04:12:48;;;;;;;47.65;31.33;;;;;;;;;;2057302;28;20309;-62
2021/04/01 04:13:53;;;;;;;45.33;30.13;;;;;;;;;;2049323;29;20600;-63
2021/04/01 04:16:23;;;;;;;40.42;27.55;;;;;;;;;;2041375;28;20277;-61
2021/04/01 04:17:24;;;;;;;43.88;28.30;;;;;;;;;;2056820;28;20177;-62
2021/04/01 04:18:24;;;;;;;43.08;27.02;;;;;;;;;;2058172;28;20175;-61
2021/04/01 04:19:24;;;;;;;40.58;27.35;;;;;;;;;;2054272;28;20183;-63
2021/04/01 04:20:24;;;;;;;46.45;29.73;;;;;;;;;;2058307;28;20262;-63
2021/04/01 04:21:25;;;;;;;37.55;27.30;;;;;;;;;;2057491;28;20221;-63
2021/04/01 04:22:26;;;;;;;43.58;27.48;;;;;;;;;;2057967;28;20186;-63
2021/04/01 04:23:26;;;;;;;40.83;28.00;;;;;;;;;;2055653;28;20217;-62
2021/04/01 04:24:27;;;;;;;43.95;28.05;;;;;;;;;;2049141;28;20183;-63
2021/04/01 04:25:28;;;;;;;42.85;27.92;;;;;;;;;;2042046;29;20262;-63
2021/04/01 04:26:28;;;;;;;40.58;28.80;;;;;;;;;;2048706;29;20190;-63
2021/04/01 04:28:32;;;;;;;42.55;28.83;;;;;;;;;;2057918;28;20210;-62
2021/04/01 04:29:32;;;;;;;41.60;28.55;;;;;;;;;;2042505;29;20176;-62
2021/04/01 04:30:33;;;;;;;43.17;28.40;;;;;;;;;;2046555;29;20253;-62
2021/04/01 04:31:33;;;;;;;41.25;28.27;;;;;;;;;;2058888;28;20202;-64
2021/04/01 04:32:34;;;;;;;43.13;28.33;;;;;;;;;;2056964;28;20177;-63
2021/04/01 04:33:35;;;;;;;41.95;28.30;;;;;;;;;;2059009;28;20202;-62
2021/04/01 04:34:35;;;;;;;40.92;28.92;;;;;;;;;;2057046;28;20193;-60
2021/04/01 04:35:35;;;;;;;45.08;29.42;;;;;;;;;;2048158;28;20194;-64
2021/04/01 04:36:35;;;;;;;41.58;29.20;;;;;;;;;;2049179;29;20175;-63
2021/04/01 04:37:36;;;;;;;41.85;28.88;;;;;;;;;;2057441;28;20178;-62
2021/04/01 04:38:36;;;;;;;42.90;28.65;;;;;;;;;;2057530;28;20174;-61
2021/04/01 04:39:36;;;;;;;41.53;29.85;;;;;;;;;;2056680;28;20175;-63
2021/04/01 04:40:37;;;;;;;44.97;31.48;;;;;;;;;;2053576;28;20179;-62
2021/04/01 04:41:37;;;;;;;43.95;29.17;;;;;;;;;;2054579;28;20191;-62
2021/04/01 04:42:37;;;;;;;43.10;28.58;;;;;;;;;;2046329;29;20179;-61
2021/04/01 04:43:37;;;;;;;47.63;31.83;;;;;;;;;;2037650;29;20625;-62
2021/04/01 04:44:38;;;;;;;55.92;31.45;;;;;;;;;;2047642;29;20174;-61
2021/04/01 04:45:38;;;;;;;50.40;33.40;;;;;;;;;;2056935;28;20202;-63
2021/04/01 04:46:38;;;;;;;49.95;32.53;;;;;;;;;;2057555;28;20194;-60
2021/04/01 04:47:38;;;;;;;50.90;32.40;;;;;;;;;;2053945;28;20194;-63
2021/04/01 04:48:39;;;;;;;48.75;32.28;;;;;;;;;;2055766;28;20212;-62
2021/04/01 04:49:39;;;;;;;52.17;34.25;;;;;;;;;;2056983;28;20190;-59
2021/04/01 04:50:39;;;;;;;53.92;33.67;;;;;;;;;;2053412;28;20175;-62
2021/04/01 04:51:39;;;;;;;53.10;33.65;;;;;;;;;;2055896;28;20212;-60
2021/04/01 04:52:41;;;;;;;53.50;34.03;;;;;;;;;;2056824;28;20253;-62
2021/04/01 04:53:41;;;;;;;51.38;34.05;;;;;;;;;;2056209;28;20233;-62
2021/04/01 04:54:42;;;;;;;55.15;35.33;;;;;;;;;;2057556;28;20757;-63
2021/04/01 04:56:26;;;;;;;54.88;34.63;;;;;;;;;;2045435;29;20215;-64
2021/04/01 04:57:32;;;;;;;50.17;32.70;;;;;;;;;;2040153;28;20195;-62
2021/04/01 04:59:56;;;;;;;53.97;33.10;;;;;;;;;;2049730;28;20172;-60
2021/04/01 05:04:38;;;;;;;57.00;34.58;;;;;;;;;;2050833;28;20671;-63
2021/04/01 05:05:06;;;;;;;50.45;32.83;;;;;;;;;;2050862;28;20190;-59
2021/04/01 05:06:06;;;;;;;51.25;34.00;;;;;;;;;;2052122;28;20234;-61
2021/04/01 05:07:06;;;;;;;56.92;35.75;;;;;;;;;;2057214;28;20487;-62
2021/04/01 05:08:07;;;;;;;56.35;35.28;;;;;;;;;;2057438;28;20206;-62
2021/04/01 05:09:07;;;;;;;53.72;34.50;;;;;;;;;;2056436;28;20169;-62
2021/04/01 05:10:07;;;;;;;49.33;33.40;;;;;;;;;;2043362;29;20185;-61
2021/04/01 05:11:08;;;;;;;59.50;36.28;;;;;;;;;;2043085;29;20651;-62
2021/04/01 05:12:08;;;;;;;56.15;36.20;;;;;;;;;;2057194;28;20268;-62
2021/04/01 05:13:09;;;;;;;54.25;35.30;;;;;;;;;;2047988;29;20659;-62
2021/04/01 05:14:10;;;;;;;58.72;36.60;;;;;;;;;;2048296;29;20187;-64
2021/04/01 05:15:10;;;;;;;58.63;36.72;;;;;;;;;;2048021;29;20187;-61
2021/04/01 05:16:10;;;;;;;56.97;36.97;;;;;;;;;;2044999;28;20222;-63
2021/04/01 05:17:14;;;;;;;56.25;36.63;;;;;;;;;;2048168;29;20595;-60
2021/04/01 05:18:29;;;;;;;51.95;35.08;;;;;;;;;;2048893;28;20175;-63
2021/04/01 05:19:31;;;;;;;57.38;37.42;;;;;;;;;;2055309;28;20201;-62
2021/04/01 05:20:31;;;;;;;59.40;36.38;;;;;;;;;;2054894;28;20228;-63
2021/04/01 05:21:53;;;;;;;60.45;37.58;;;;;;;;;;2056249;28;20318;-62
2021/04/01 05:22:56;;;;;;;58.28;38.03;;;;;;;;;;2051262;28;20179;-61
2021/04/01 05:23:57;;;;;;;53.75;35.90;;;;;;;;;;2046956;29;20175;-63
2021/04/01 05:24:57;;;;;;;57.90;37.92;;;;;;;;;;2037833;29;20180;-62
2021/04/01 05:27:23;;;;;;;57.22;36.55;;;;;;;;;;2047833;29;20638;-62
2021/04/01 05:28:30;;;;;;;57.38;36.17;;;;;;;;;;2048569;28;20271;-61
2021/04/01 05:29:35;;;;;;;60.13;37.25;;;;;;;;;;2046090;29;20170;-62
2021/04/01 05:30:36;;;;;;;61.58;39.60;;;;;;;;;;2040417;29;20728;-62
2021/04/01 05:31:39;;;;;;;57.03;37.25;;;;;;;;;;2048799;29;20225;-64
2021/04/01 05:32:42;;;;;;;57.22;36.38;;;;;;;;;;2052891;28;20706;-63
2021/04/01 05:33:44;;;;;;;56.42;36.70;;;;;;;;;;2054742;28;20178;-61
2021/04/01 05:34:44;;;;;;;54.25;36.05;;;;;;;;;;2056291;28;20718;-61
2021/04/01 05:35:45;;;;;;;58.83;37.53;;;;;;;;;;2057044;28;20277;-64
2021/04/01 05:36:46;;;;;;;59.58;37.95;;;;;;;;;;2056004;28;20182;-62
2021/04/01 05:37:46;;;;;;;62.80;38.60;;;;;;;;;;2057025;28;20706;-62
2021/04/01 05:38:47;;;;;;;55.90;38.97;;;;;;;;;;2055341;28;20269;-62
2021/04/01 05:39:49;;;;;;;62.58;39.40;;;;;;;;;;2048103;29;20363;-63
2021/04/01 05:40:50;;;;;;;58.05;37.58;;;;;;;;;;2048000;28;20190;-62
2021/04/01 05:41:51;;;;;;;59.53;38.15;;;;;;;;;;2040493;29;20206;-62
2021/04/01 05:42:52;;;;;;;63.55;38.85;;;;;;;;;;2033027;29;20714;-63
2021/04/01 05:44:01;;;;;;;67.95;39.83;;;;;;;;;;2047376;29;20186;-61
2021/04/01 05:45:07;;;;;;;63.80;38.58;;;;;;;;;;2050729;28;20191;-62
2021/04/01 05:46:15;;;;;;;63.75;40.35;;;;;;;;;;2047329;28;20270;-63
2021/04/01 05:47:36;;;;;;;64.68;40.60;;;;;;;;;;2039514;29;20163;-63
2021/04/01 05:57:01;;;;;;;71.00;41.38;;;;;;;;;;2021958;29;20352;-63
2021/04/01 05:59:29;;;;;;;66.75;40.45;;;;;;;;;;2019676;29;20293;-64
2021/04/01 06:03:31;;;;;;;70.68;41.80;;;;;;;;;;2051450;28;20183;-60
2021/04/01 06:05:38;;;;;;;71.00;40.38;;;;;;;;;;2056365;28;20670;-62
2021/04/01 06:06:45;;;;;;;68.20;42.40;;;;;;;;;;2055518;28;20277;-61
2021/04/01 06:07:45;;;;;;;66.88;41.95;;;;;;;;;;2046878;29;20183;-61
2021/04/01 06:08:49;;;;;;;63.50;41.90;;;;;;;;;;2039333;29;20212;-62
2021/04/01 06:09:54;;;;;;;64.63;41.97;;;;;;;;;;2041060;29;20210;-63
2021/04/01 06:10:55;;;;;;;66.70;41.92;;;;;;;;;;2040028;29;20179;-61
2021/04/01 06:11:56;;;;;;;65.22;41.67;;;;;;;;;;2048334;29;20670;-61
2021/04/01 06:12:56;;;;;;;69.90;41.13;;;;;;;;;;2058013;28;20186;-58
2021/04/01 06:14:12;;;;;;;66.88;42.42;;;;;;;;;;2058589;28;20181;-60
2021/04/01 06:15:13;;;;;;;68.80;42.72;;;;;;;;;;2057361;28;20178;-62
2021/04/01 06:16:13;;;;;;;71.28;43.67;;;;;;;;;;2058436;28;20293;-63
2021/04/01 06:17:15;;;;;;;68.13;43.38;;;;;;;;;;2059851;28;20205;-61
2021/04/01 06:18:20;;;;;;;68.80;42.92;;;;;;;;;;2050199;29;20167;-58
2021/04/01 06:19:29;;;;;;;72.22;44.13;;;;;;;;;;2051943;28;20186;-64
2021/04/01 06:20:31;;;;;;;67.45;41.42;;;;;;;;;;2051260;29;20774;-64
2021/04/01 06:21:37;;;;;;;69.20;43.35;;;;;;;;;;2049552;28;20266;-64
2021/04/01 06:22:39;;;;;;;71.03;44.00;;;;;;;;;;2049103;29;20187;-64
2021/04/01 06:23:40;;;;;;;72.45;42.90;;;;;;;;;;2049812;29;20182;-64
2021/04/01 06:24:43;;;;;;;73.80;42.85;;;;;;;;;;2050823;28;20270;-65
2021/04/01 06:25:47;;;;;;;67.40;42.80;;;;;;;;;;2060228;28;20686;-65
2021/04/01 06:26:59;;;;;;;69.60;43.55;;;;;;;;;;2057077;28;20217;-66
2021/04/01 06:28:01;;;;;;;72.60;47.05;;;;;;;;;;2050649;29;20680;-64
2021/04/01 06:29:02;;;;;;;76.63;48.80;;;;;;;;;;2049050;28;20179;-64
2021/04/01 06:31:29;;;;;;;75.57;43.38;;;;;;;;;;2054609;28;20167;-65
2021/04/01 06:32:30;;;;;;;69.63;43.42;;;;;;;;;;2058825;28;20790;-64